sensor_id;sensor_type;location;lat;lon;timestamp;P1;durP1;ratioP1;P2;durP2;ratioP2
58974;SDS011;44751;52.236;5.178;2023-01-19T00:01:22;1.60;;;0.50;;
58974;SDS011;44751;52.236;5.178;2023-01-19T00:03:49;1.98;;;0.50;;
58974;SDS011;44751;52.236;5.178;2023-01-19T00:06:16;1.00;;;0.50;;
58974;SDS011;44751;52.236;5.178;2023-01-19T00:08:46;1.42;;;0.57;;
58974;SDS011;44751;52.236;5.178;2023-01-19T00:11:15;3.50;;;0.52;;
58974;SDS011;44751;52.236;5.178;2023-01-19T00:14:03;1.65;;;0.50;;
58974;SDS011;44751;52.236;5.178;2023-01-19T00:19:32;3.05;;;0.60;;
58974;SDS011;44751;52.236;5.178;2023-01-19T00:21:59;4.07;;;0.93;;
58974;SDS011;44751;52.236;5.178;2023-01-19T01:39:40;1.55;;;0.60;;
58974;SDS011;44751;52.236;5.178;2023-01-19T01:42:13;2.17;;;0.60;;
58974;SDS011;44751;52.236;5.178;2023-01-19T01:44:50;3.72;;;0.70;;
58974;SDS011;44751;52.236;5.178;2023-01-19T01:47:30;4.03;;;0.55;;
58974;SDS011;44751;52.236;5.178;2023-01-19T01:50:07;3.58;;;0.82;;
58974;SDS011;44751;52.236;5.178;2023-01-19T01:52:36;6.15;;;0.75;;
58974;SDS011;44751;52.236;5.178;2023-01-19T01:55:08;3.88;;;0.70;;
58974;SDS011;44751;52.236;5.178;2023-01-19T01:57:49;5.75;;;0.90;;
58974;SDS011;44751;52.236;5.178;2023-01-19T02:00:24;5.68;;;1.10;;
58974;SDS011;44751;52.236;5.178;2023-01-19T02:03:11;7.30;;;1.42;;
58974;SDS011;44751;52.236;5.178;2023-01-19T02:05:40;6.78;;;1.00;;
58974;SDS011;44751;52.236;5.178;2023-01-19T02:08:14;6.00;;;1.02;;
58974;SDS011;44751;52.236;5.178;2023-01-19T02:11:10;6.60;;;1.05;;
58974;SDS011;44751;52.236;5.178;2023-01-19T02:13:54;3.80;;;0.77;;
58974;SDS011;44751;52.236;5.178;2023-01-19T02:16:24;5.20;;;1.00;;
58974;SDS011;44751;52.236;5.178;2023-01-19T02:18:54;6.83;;;0.90;;
58974;SDS011;44751;52.236;5.178;2023-01-19T02:24:12;6.85;;;1.00;;
58974;SDS011;44751;52.236;5.178;2023-01-19T02:26:41;4.82;;;0.90;;
58974;SDS011;44751;52.236;5.178;2023-01-19T02:29:11;6.60;;;1.00;;
58974;SDS011;44751;52.236;5.178;2023-01-19T02:31:49;5.30;;;1.17;;
58974;SDS011;44751;52.236;5.178;2023-01-19T02:34:19;7.82;;;1.10;;
58974;SDS011;44751;52.236;5.178;2023-01-19T02:36:53;4.35;;;1.05;;
58974;SDS011;44751;52.236;5.178;2023-01-19T02:39:32;4.80;;;1.02;;
58974;SDS011;44751;52.236;5.178;2023-01-19T02:42:13;6.90;;;1.00;;
58974;SDS011;44751;52.236;5.178;2023-01-19T02:45:03;3.17;;;0.70;;
58974;SDS011;44751;52.236;5.178;2023-01-19T02:47:52;4.05;;;0.63;;
58974;SDS011;44751;52.236;5.178;2023-01-19T10:00:11;8.63;;;1.50;;
58974;SDS011;44751;52.236;5.178;2023-01-19T10:05:38;7.90;;;1.95;;
58974;SDS011;44751;52.236;5.178;2023-01-19T10:08:28;8.30;;;1.73;;
58974;SDS011;44751;52.236;5.178;2023-01-19T10:11:02;9.15;;;2.05;;
58974;SDS011;44751;52.236;5.178;2023-01-19T10:13:41;10.13;;;1.98;;
58974;SDS011;44751;52.236;5.178;2023-01-19T10:18:56;7.30;;;2.00;;
58974;SDS011;44751;52.236;5.178;2023-01-19T10:21:41;8.80;;;1.83;;
58974;SDS011;44751;52.236;5.178;2023-01-19T11:00:28;10.05;;;1.63;;
58974;SDS011;44751;52.236;5.178;2023-01-19T14:30:13;7.30;;;1.15;;
58974;SDS011;44751;52.236;5.178;2023-01-19T14:40:47;4.93;;;1.33;;
58974;SDS011;44751;52.236;5.178;2023-01-19T14:43:15;5.50;;;1.50;;
58974;SDS011;44751;52.236;5.178;2023-01-19T14:45:56;4.32;;;1.17;;
58974;SDS011;44751;52.236;5.178;2023-01-19T14:56:52;4.22;;;1.27;;
58974;SDS011;44751;52.236;5.178;2023-01-19T15:01:52;4.22;;;1.33;;
58974;SDS011;44751;52.236;5.178;2023-01-19T15:04:19;5.10;;;1.20;;
58974;SDS011;44751;52.236;5.178;2023-01-19T15:12:04;5.38;;;1.30;;
58974;SDS011;44751;52.236;5.178;2023-01-19T15:14:44;6.00;;;1.42;;
58974;SDS011;44751;52.236;5.178;2023-01-19T15:17:15;6.78;;;1.38;;
58974;SDS011;44751;52.236;5.178;2023-01-19T15:22:58;5.43;;;1.10;;
58974;SDS011;44751;52.236;5.178;2023-01-19T17:53:13;9.10;;;5.60;;
58974;SDS011;44751;52.236;5.178;2023-01-19T17:55:40;12.82;;;6.07;;
58974;SDS011;44751;52.236;5.178;2023-01-19T17:58:06;9.30;;;5.68;;
58974;SDS011;44751;52.236;5.178;2023-01-19T18:05:54;10.57;;;6.95;;
58974;SDS011;44751;52.236;5.178;2023-01-19T18:14:03;10.68;;;5.13;;
58974;SDS011;44751;52.236;5.178;2023-01-19T18:16:32;8.60;;;5.05;;
58974;SDS011;44751;52.236;5.178;2023-01-19T18:18:59;11.07;;;5.65;;
58974;SDS011;44751;52.236;5.178;2023-01-19T18:24:10;9.93;;;4.43;;
58974;SDS011;44751;52.236;5.178;2023-01-19T18:26:36;11.20;;;4.30;;
58974;SDS011;44751;52.236;5.178;2023-01-19T18:31:38;8.82;;;4.93;;
58974;SDS011;44751;52.236;5.178;2023-01-19T18:34:06;9.48;;;4.45;;
58974;SDS011;44751;52.236;5.178;2023-01-19T18:36:33;5.90;;;3.30;;
58974;SDS011;44751;52.236;5.178;2023-01-19T18:39:01;7.53;;;3.63;;
58974;SDS011;44751;52.236;5.178;2023-01-19T18:41:34;7.13;;;3.53;;
58974;SDS011;44751;52.236;5.178;2023-01-19T18:44:05;6.05;;;2.88;;
58974;SDS011;44751;52.236;5.178;2023-01-19T18:46:36;6.18;;;2.22;;
58974;SDS011;44751;52.236;5.178;2023-01-19T18:49:12;4.63;;;2.15;;
58974;SDS011;44751;52.236;5.178;2023-01-19T18:51:39;6.13;;;2.00;;
58974;SDS011;44751;52.236;5.178;2023-01-19T18:54:07;7.78;;;2.47;;
58974;SDS011;44751;52.236;5.178;2023-01-19T18:56:38;4.70;;;2.13;;
58974;SDS011;44751;52.236;5.178;2023-01-19T18:59:05;4.28;;;2.22;;
58974;SDS011;44751;52.236;5.178;2023-01-19T19:01:37;4.50;;;2.55;;
58974;SDS011;44751;52.236;5.178;2023-01-19T19:04:04;4.63;;;2.03;;
58974;SDS011;44751;52.236;5.178;2023-01-19T19:06:32;1.83;;;1.20;;
58974;SDS011;44751;52.236;5.178;2023-01-19T19:09:04;1.67;;;1.30;;
58974;SDS011;44751;52.236;5.178;2023-01-19T19:11:31;6.03;;;1.05;;
58974;SDS011;44751;52.236;5.178;2023-01-19T19:14:00;2.55;;;2.00;;
58974;SDS011;44751;52.236;5.178;2023-01-19T19:16:28;3.40;;;2.15;;
58974;SDS011;44751;52.236;5.178;2023-01-19T19:18:59;11.98;;;4.47;;
58974;SDS011;44751;52.236;5.178;2023-01-19T19:21:26;10.27;;;2.88;;
58974;SDS011;44751;52.236;5.178;2023-01-19T19:23:54;2.95;;;1.90;;
58974;SDS011;44751;52.236;5.178;2023-01-19T19:26:22;5.28;;;2.50;;
58974;SDS011;44751;52.236;5.178;2023-01-19T19:28:50;7.22;;;3.20;;
58974;SDS011;44751;52.236;5.178;2023-01-19T19:31:17;3.58;;;2.08;;
58974;SDS011;44751;52.236;5.178;2023-01-19T19:33:46;5.32;;;2.45;;
58974;SDS011;44751;52.236;5.178;2023-01-19T19:36:14;4.68;;;2.95;;
58974;SDS011;44751;52.236;5.178;2023-01-19T19:38:41;3.03;;;1.92;;
58974;SDS011;44751;52.236;5.178;2023-01-19T19:41:11;2.85;;;2.10;;
58974;SDS011;44751;52.236;5.178;2023-01-19T19:43:40;3.22;;;1.83;;
58974;SDS011;44751;52.236;5.178;2023-01-19T19:46:07;4.43;;;2.97;;
58974;SDS011;44751;52.236;5.178;2023-01-19T19:48:36;4.38;;;3.50;;
58974;SDS011;44751;52.236;5.178;2023-01-19T19:51:06;6.55;;;5.05;;
58974;SDS011;44751;52.236;5.178;2023-01-19T19:53:37;4.13;;;2.88;;
58974;SDS011;44751;52.236;5.178;2023-01-19T19:56:05;4.18;;;2.47;;
58974;SDS011;44751;52.236;5.178;2023-01-19T19:58:33;7.00;;;2.90;;
58974;SDS011;44751;52.236;5.178;2023-01-19T20:01:05;4.72;;;3.22;;
58974;SDS011;44751;52.236;5.178;2023-01-19T20:03:35;3.53;;;2.40;;
58974;SDS011;44751;52.236;5.178;2023-01-19T20:06:06;6.65;;;2.88;;
58974;SDS011;44751;52.236;5.178;2023-01-19T20:08:34;6.05;;;2.95;;
58974;SDS011;44751;52.236;5.178;2023-01-19T20:11:02;4.90;;;2.65;;
58974;SDS011;44751;52.236;5.178;2023-01-19T20:13:30;3.85;;;2.45;;
58974;SDS011;44751;52.236;5.178;2023-01-19T20:16:01;3.70;;;2.30;;
58974;SDS011;44751;52.236;5.178;2023-01-19T20:18:29;3.63;;;2.40;;
58974;SDS011;44751;52.236;5.178;2023-01-19T20:20:58;2.78;;;1.80;;
58974;SDS011;44751;52.236;5.178;2023-01-19T20:23:25;3.85;;;1.85;;
58974;SDS011;44751;52.236;5.178;2023-01-19T20:25:54;3.88;;;2.03;;
58974;SDS011;44751;52.236;5.178;2023-01-19T20:28:20;2.88;;;2.00;;
58974;SDS011;44751;52.236;5.178;2023-01-19T20:30:47;3.22;;;2.40;;
58974;SDS011;44751;52.236;5.178;2023-01-19T20:33:13;5.78;;;2.10;;
58974;SDS011;44751;52.236;5.178;2023-01-19T20:35:40;2.85;;;1.60;;
58974;SDS011;44751;52.236;5.178;2023-01-19T20:38:06;3.35;;;1.90;;
58974;SDS011;44751;52.236;5.178;2023-01-19T20:40:33;4.50;;;3.00;;
58974;SDS011;44751;52.236;5.178;2023-01-19T20:43:00;5.47;;;4.82;;
58974;SDS011;44751;52.236;5.178;2023-01-19T20:45:26;4.53;;;4.13;;
58974;SDS011;44751;52.236;5.178;2023-01-19T20:47:53;4.28;;;3.33;;
58974;SDS011;44751;52.236;5.178;2023-01-19T20:50:19;6.10;;;3.75;;
58974;SDS011;44751;52.236;5.178;2023-01-19T20:52:49;4.15;;;2.60;;
58974;SDS011;44751;52.236;5.178;2023-01-19T20:55:15;4.70;;;2.83;;
58974;SDS011;44751;52.236;5.178;2023-01-19T20:57:42;4.55;;;2.33;;
58974;SDS011;44751;52.236;5.178;2023-01-19T21:00:09;4.63;;;2.38;;
58974;SDS011;44751;52.236;5.178;2023-01-19T21:02:36;3.40;;;2.25;;
58974;SDS011;44751;52.236;5.178;2023-01-19T21:05:06;4.15;;;2.30;;
58974;SDS011;44751;52.236;5.178;2023-01-19T21:07:33;3.90;;;2.58;;
58974;SDS011;44751;52.236;5.178;2023-01-19T21:09:59;3.47;;;1.98;;
58974;SDS011;44751;52.236;5.178;2023-01-19T21:12:26;2.80;;;2.20;;
58974;SDS011;44751;52.236;5.178;2023-01-19T21:14:52;3.30;;;2.40;;
58974;SDS011;44751;52.236;5.178;2023-01-19T21:17:24;4.15;;;2.20;;
58974;SDS011;44751;52.236;5.178;2023-01-19T21:19:50;4.15;;;2.60;;
58974;SDS011;44751;52.236;5.178;2023-01-19T21:22:17;3.25;;;2.92;;
58974;SDS011;44751;52.236;5.178;2023-01-19T21:24:46;3.90;;;2.58;;
58974;SDS011;44751;52.236;5.178;2023-01-19T21:27:12;5.47;;;2.80;;
58974;SDS011;44751;52.236;5.178;2023-01-19T21:29:39;3.95;;;3.13;;
58974;SDS011;44751;52.236;5.178;2023-01-19T21:32:08;4.15;;;3.03;;
58974;SDS011;44751;52.236;5.178;2023-01-19T21:34:35;5.45;;;3.35;;
58974;SDS011;44751;52.236;5.178;2023-01-19T21:37:02;4.50;;;3.20;;
58974;SDS011;44751;52.236;5.178;2023-01-19T21:39:28;5.75;;;3.30;;
58974;SDS011;44751;52.236;5.178;2023-01-19T21:41:55;3.95;;;2.80;;
58974;SDS011;44751;52.236;5.178;2023-01-19T21:44:22;4.00;;;3.08;;
58974;SDS011;44751;52.236;5.178;2023-01-19T21:46:48;4.53;;;3.17;;
58974;SDS011;44751;52.236;5.178;2023-01-19T21:49:16;4.30;;;3.40;;
58974;SDS011;44751;52.236;5.178;2023-01-19T21:51:44;5.43;;;3.47;;
58974;SDS011;44751;52.236;5.178;2023-01-19T21:54:11;6.30;;;4.68;;
58974;SDS011;44751;52.236;5.178;2023-01-19T21:56:38;5.35;;;4.00;;
58974;SDS011;44751;52.236;5.178;2023-01-19T21:59:07;7.03;;;4.43;;
58974;SDS011;44751;52.236;5.178;2023-01-19T22:01:35;7.82;;;4.95;;
58974;SDS011;44751;52.236;5.178;2023-01-19T22:04:02;7.72;;;5.10;;
58974;SDS011;44751;52.236;5.178;2023-01-19T22:06:28;7.57;;;5.85;;
58974;SDS011;44751;52.236;5.178;2023-01-19T22:08:55;9.15;;;5.82;;
58974;SDS011;44751;52.236;5.178;2023-01-19T22:11:24;9.38;;;5.90;;
58974;SDS011;44751;52.236;5.178;2023-01-19T22:13:52;8.05;;;5.53;;
58974;SDS011;44751;52.236;5.178;2023-01-19T22:16:19;7.30;;;5.72;;
58974;SDS011;44751;52.236;5.178;2023-01-19T22:18:51;8.20;;;5.72;;
58974;SDS011;44751;52.236;5.178;2023-01-19T22:21:26;6.43;;;4.85;;
58974;SDS011;44751;52.236;5.178;2023-01-19T22:23:55;7.28;;;6.28;;
58974;SDS011;44751;52.236;5.178;2023-01-19T22:26:23;10.70;;;7.13;;
58974;SDS011;44751;52.236;5.178;2023-01-19T22:28:51;10.60;;;7.30;;
58974;SDS011;44751;52.236;5.178;2023-01-19T22:31:19;10.63;;;7.47;;
58974;SDS011;44751;52.236;5.178;2023-01-19T22:33:46;11.35;;;7.82;;
58974;SDS011;44751;52.236;5.178;2023-01-19T22:36:16;12.07;;;8.07;;
58974;SDS011;44751;52.236;5.178;2023-01-19T22:38:54;10.13;;;7.63;;
58974;SDS011;44751;52.236;5.178;2023-01-19T22:43:54;11.00;;;8.15;;
58974;SDS011;44751;52.236;5.178;2023-01-19T22:46:22;12.57;;;8.45;;
58974;SDS011;44751;52.236;5.178;2023-01-19T22:48:54;10.32;;;8.30;;
58974;SDS011;44751;52.236;5.178;2023-01-19T22:51:21;10.55;;;8.00;;
58974;SDS011;44751;52.236;5.178;2023-01-19T22:53:49;10.80;;;8.30;;
58974;SDS011;44751;52.236;5.178;2023-01-19T22:56:23;10.85;;;8.13;;
58974;SDS011;44751;52.236;5.178;2023-01-19T22:58:53;11.68;;;8.18;;
58974;SDS011;44751;52.236;5.178;2023-01-19T23:01:21;9.95;;;7.35;;
58974;SDS011;44751;52.236;5.178;2023-01-19T23:03:49;12.63;;;7.40;;
58974;SDS011;44751;52.236;5.178;2023-01-19T23:06:23;10.20;;;7.30;;
58974;SDS011;44751;52.236;5.178;2023-01-19T23:08:52;8.57;;;6.45;;
58974;SDS011;44751;52.236;5.178;2023-01-19T23:11:21;9.73;;;7.00;;
58974;SDS011;44751;52.236;5.178;2023-01-19T23:13:49;9.70;;;7.05;;
58974;SDS011;44751;52.236;5.178;2023-01-19T23:16:20;8.60;;;6.53;;
58974;SDS011;44751;52.236;5.178;2023-01-19T23:18:47;10.45;;;6.97;;
58974;SDS011;44751;52.236;5.178;2023-01-19T23:21:17;9.70;;;5.88;;
58974;SDS011;44751;52.236;5.178;2023-01-19T23:23:45;11.20;;;7.47;;
58974;SDS011;44751;52.236;5.178;2023-01-19T23:26:15;10.27;;;6.78;;
58974;SDS011;44751;52.236;5.178;2023-01-19T23:28:46;8.90;;;6.47;;
58974;SDS011;44751;52.236;5.178;2023-01-19T23:33:46;8.57;;;6.70;;
58974;SDS011;44751;52.236;5.178;2023-01-19T23:36:14;9.00;;;6.22;;
58974;SDS011;44751;52.236;5.178;2023-01-19T23:38:46;10.25;;;7.30;;
58974;SDS011;44751;52.236;5.178;2023-01-19T23:41:13;9.55;;;6.88;;
58974;SDS011;44751;52.236;5.178;2023-01-19T23:43:40;9.82;;;6.93;;
58974;SDS011;44751;52.236;5.178;2023-01-19T23:46:08;8.88;;;6.95;;
58974;SDS011;44751;52.236;5.178;2023-01-19T23:48:36;10.77;;;6.90;;
58974;SDS011;44751;52.236;5.178;2023-01-19T23:53:33;10.15;;;7.03;;
58974;SDS011;44751;52.236;5.178;2023-01-19T23:58:36;8.75;;;7.05;;
